Time;durP1;ratioP1;P1;durP2;ratioP2;P2;SDS_P1;SDS_P2;PMS_P1;PMS_P2;Temp;Humidity;BMP_temperature;BMP_pressure;BME280_temperature;BME280_humidity;BME280_pressure;Samples;Min_cycle;Max_cycle;Signal;HPM_P1;HPM_P2
2021/03/03 00:00:36;;;;;;;33.05;19.17;;;9.50;99.90;;;9.03;94.37;102338.31;4120006;28;20030;-73
2021/03/03 00:02:37;;;;;;;34.92;19.60;;;9.50;99.90;;;9.18;93.38;102354.81;4137234;28;20030;-72
2021/03/03 00:04:38;;;;;;;26.73;17.33;;;9.50;99.90;;;9.12;92.78;102350.81;4137068;28;20027;-73
2021/03/03 00:06:39;;;;;;;32.40;17.70;;;9.50;99.90;;;9.17;92.93;102359.22;4119983;28;20059;-73
2021/03/03 00:08:40;;;;;;;35.35;19.95;;;9.50;99.90;;;9.15;93.21;102353.25;4137152;28;20126;-73
2021/03/03 00:10:40;;;;;;;35.15;21.30;;;9.50;99.90;;;8.99;93.18;102326.28;4136973;28;20033;-73
2021/03/03 00:12:41;;;;;;;28.20;17.73;;;9.50;99.90;;;9.15;93.30;102349.75;4137041;28;20541;-73
2021/03/03 00:14:43;;;;;;;30.42;18.52;;;9.50;99.90;;;9.06;93.50;102340.72;4136561;28;20048;-73
2021/03/03 00:16:43;;;;;;;29.08;18.90;;;9.50;99.90;;;9.03;93.68;102327.78;4136989;28;20030;-73
2021/03/03 00:18:44;;;;;;;34.17;18.48;;;9.50;99.90;;;9.09;94.16;102337.88;4119705;28;20022;-73
2021/03/03 00:20:45;;;;;;;33.85;19.85;;;9.50;99.90;;;9.11;92.96;102324.63;4119704;28;20042;-72
2021/03/03 00:22:46;;;;;;;30.38;18.02;;;9.50;99.90;;;8.99;93.19;102315.75;4137006;28;20106;-73
2021/03/03 00:24:47;;;;;;;30.75;17.95;;;9.50;99.90;;;8.89;93.51;102318.22;4136934;28;20083;-73
2021/03/03 00:26:48;;;;;;;33.60;19.38;;;9.40;99.90;;;8.92;94.38;102327.69;4119460;28;20414;-73
2021/03/03 00:28:49;;;;;;;27.65;16.80;;;9.40;99.90;;;8.82;94.33;102310.84;4119359;28;20049;-72
2021/03/03 00:30:50;;;;;;;34.05;18.27;;;9.30;99.90;;;9.02;93.14;102328.72;4119650;28;20038;-72
2021/03/03 00:32:51;;;;;;;28.02;16.75;;;9.30;99.90;;;8.88;93.20;102318.31;4136863;28;20038;-73
2021/03/03 00:34:51;;;;;;;32.38;18.35;;;9.30;99.90;;;8.90;93.01;102343.56;4136599;28;20050;-73
2021/03/03 00:36:52;;;;;;;34.35;17.67;;;9.20;99.90;;;8.76;93.55;102327.91;4119627;28;20431;-72
2021/03/03 00:38:53;;;;;;;27.13;16.77;;;9.20;99.90;;;8.72;93.36;102318.53;4119544;28;20022;-73
2021/03/03 00:40:54;;;;;;;31.77;17.42;;;9.10;99.90;;;8.87;91.91;102338.50;4136757;28;20453;-73
2021/03/03 00:42:55;;;;;;;27.60;17.73;;;9.10;99.90;;;8.76;92.95;102333.16;4136603;28;20022;-73
2021/03/03 00:44:56;;;;;;;38.72;18.83;;;9.10;99.90;;;8.66;93.83;102332.09;4136729;28;20038;-73
2021/03/03 00:46:57;;;;;;;29.25;17.45;;;9.00;99.90;;;8.71;93.64;102335.28;4119304;28;20049;-72
2021/03/03 00:48:58;;;;;;;34.22;17.90;;;9.00;99.90;;;8.58;93.07;102316.00;4136746;28;20034;-73
2021/03/03 00:50:58;;;;;;;26.38;15.93;;;9.00;99.90;;;8.77;92.52;102336.63;4136732;28;20497;-73
2021/03/03 00:52:59;;;;;;;25.17;15.30;;;9.00;99.90;;;8.73;93.45;102341.25;4136544;28;20093;-73
2021/03/03 00:55:00;;;;;;;31.42;17.10;;;9.00;99.90;;;8.67;92.53;102343.47;4136441;28;20030;-73
2021/03/03 00:57:01;;;;;;;27.85;17.10;;;9.00;99.90;;;8.60;92.49;102343.03;4136726;28;20022;-72
2021/03/03 00:59:02;;;;;;;27.17;17.27;;;8.90;99.90;;;8.37;92.63;102325.34;4136258;28;20510;-73
2021/03/03 01:01:04;;;;;;;41.75;18.35;;;8.90;99.90;;;8.07;93.46;102288.78;4136460;28;20108;-73
2021/03/03 01:03:05;;;;;;;32.97;17.30;;;8.80;99.90;;;8.48;93.59;102353.56;4136323;28;20037;-73
2021/03/03 01:05:07;;;;;;;27.45;17.23;;;8.80;99.90;;;8.43;93.55;102330.19;4119141;28;20030;-72
2021/03/03 01:07:08;;;;;;;25.70;16.80;;;8.80;99.90;;;8.54;93.69;102346.06;4136370;28;20057;-73
2021/03/03 01:09:09;;;;;;;35.70;19.75;;;8.80;99.90;;;8.62;93.49;102335.06;4136356;28;20041;-73
2021/03/03 01:11:10;;;;;;;31.10;18.55;;;8.90;99.90;;;8.61;93.60;102333.34;4136054;28;20513;-73
2021/03/03 01:13:11;;;;;;;26.15;17.77;;;8.90;99.90;;;8.67;92.85;102336.41;4136093;28;20513;-73
2021/03/03 01:15:12;;;;;;;30.77;17.27;;;8.90;99.90;;;8.74;93.10;102344.75;4136274;28;20521;-73
2021/03/03 01:17:13;;;;;;;29.73;17.98;;;8.90;99.90;;;8.64;92.79;102341.88;4108303;28;20054;-73
2021/03/03 01:19:14;;;;;;;29.13;16.65;;;8.90;99.90;;;8.55;91.86;102329.38;4118934;28;20109;-73
2021/03/03 01:21:15;;;;;;;32.00;16.95;;;8.90;99.90;;;8.67;91.49;102331.16;4136248;28;20033;-73
2021/03/03 01:23:16;;;;;;;24.60;16.50;;;8.90;99.90;;;8.43;91.33;102340.72;4136335;28;20474;-73
2021/03/03 01:25:17;;;;;;;21.65;14.20;;;8.80;99.90;;;8.35;92.47;102343.03;4136132;28;20041;-73
2021/03/03 01:27:19;;;;;;;29.23;15.82;;;8.70;99.90;;;8.37;92.86;102337.66;4136104;28;20033;-73
2021/03/03 01:29:20;;;;;;;28.27;16.00;;;8.70;99.90;;;8.41;93.32;102342.63;4135994;28;20042;-73
2021/03/03 01:31:21;;;;;;;26.48;19.55;;;8.70;99.90;;;8.58;92.31;102355.47;4136140;28;20030;-73
2021/03/03 01:33:31;;;;;;;33.00;20.13;;;8.90;99.90;;;8.47;92.36;102352.72;4136008;28;20026;-73
2021/03/03 01:35:32;;;;;;;34.75;19.42;;;8.90;99.90;;;8.47;93.84;102352.72;4135793;28;20422;-73
2021/03/03 01:37:33;;;;;;;36.33;20.42;;;8.90;99.90;;;8.42;93.79;102325.91;4118610;28;20027;-73
2021/03/03 01:39:34;;;;;;;45.08;23.85;;;8.90;99.90;;;8.45;94.18;102335.38;4118206;28;20519;-73
2021/03/03 01:41:35;;;;;;;35.10;20.88;;;8.90;99.90;;;8.43;95.30;102339.88;4135968;28;20031;-73
2021/03/03 01:43:36;;;;;;;40.15;22.67;;;8.90;99.90;;;8.46;95.33;102340.50;4135599;28;20027;-73
2021/03/03 01:45:37;;;;;;;37.53;20.52;;;8.90;99.90;;;8.64;93.85;102343.66;4135974;28;20545;-73
2021/03/03 01:47:39;;;;;;;33.33;19.55;;;9.00;99.90;;;8.62;94.90;102345.56;4118488;28;20075;-73
2021/03/03 01:49:40;;;;;;;30.45;18.95;;;9.00;99.90;;;8.59;95.50;102346.63;4135854;28;20234;-73
2021/03/03 01:51:40;;;;;;;34.20;19.95;;;9.10;99.90;;;8.65;95.64;102340.09;4135635;28;20030;-73
2021/03/03 01:53:42;;;;;;;41.22;22.70;;;9.10;99.90;;;8.74;95.65;102337.69;4135803;28;20070;-73
2021/03/03 01:55:43;;;;;;;36.30;21.67;;;9.10;99.90;;;8.82;94.91;102342.41;4135747;28;20019;-73
2021/03/03 01:57:45;;;;;;;43.85;26.17;;;9.20;99.90;;;8.85;94.24;102321.16;4135510;28;20062;-73
2021/03/03 01:59:46;;;;;;;36.45;24.92;;;9.30;99.90;;;8.99;93.27;102334.19;4118260;28;20055;-73
2021/03/03 02:01:47;;;;;;;42.15;25.45;;;9.30;99.90;;;8.94;92.89;102312.63;4135853;28;20030;-72
2021/03/03 02:03:49;;;;;;;35.58;20.88;;;9.50;99.90;;;8.93;94.42;102331.16;4135782;28;20552;-73
2021/03/03 02:05:58;;;;;;;36.33;21.17;;;9.40;99.90;;;8.94;94.98;102335.47;4118536;28;20101;-73
2021/03/03 02:08:13;;;;;;;36.70;19.98;;;9.40;99.90;;;8.92;94.71;102334.72;4118769;28;20462;-73
2021/03/03 02:10:32;;;;;;;29.88;19.55;;;9.40;99.90;;;9.09;94.23;102342.28;4135803;28;20041;-73
2021/03/03 02:12:47;;;;;;;38.75;22.25;;;9.40;99.90;;;9.24;93.19;102346.47;4135711;28;20026;-73
2021/03/03 02:14:55;;;;;;;39.90;24.65;;;9.50;99.90;;;9.06;93.34;102340.72;4118877;28;20035;-73
2021/03/03 02:16:58;;;;;;;34.65;22.15;;;9.60;99.90;;;9.07;94.58;102346.81;4118632;28;20023;-73
2021/03/03 02:19:00;;;;;;;45.47;27.45;;;9.50;99.90;;;9.24;94.03;102322.78;4135700;28;20034;-73
2021/03/03 02:21:19;;;;;;;37.22;21.48;;;9.60;99.90;;;9.27;93.81;102296.22;4118339;28;20062;-73
2021/03/03 02:24:03;;;;;;;37.03;20.58;;;9.70;99.90;;;9.00;94.75;102304.28;4119677;28;20035;-73
2021/03/03 02:26:04;;;;;;;40.17;20.63;;;9.60;99.90;;;8.88;96.64;102316.53;4135695;28;20054;-73
2021/03/03 02:28:08;;;;;;;32.67;19.83;;;9.60;99.90;;;9.09;97.13;102321.22;4118220;28;20062;-73
2021/03/03 02:30:10;;;;;;;35.88;19.58;;;9.60;99.90;;;8.99;97.73;102307.06;4118567;28;20496;-73
2021/03/03 02:32:12;;;;;;;29.75;18.27;;;9.60;99.90;;;8.93;98.68;102291.69;4118134;28;20035;-73
2021/03/03 02:34:15;;;;;;;29.17;17.30;;;9.60;99.90;;;9.03;98.39;102303.25;4117048;28;20122;-73
2021/03/03 02:36:16;;;;;;;28.00;17.07;;;9.60;99.90;;;9.04;99.16;102294.41;4102346;29;20475;-73
2021/03/03 02:38:19;;;;;;;31.85;21.08;;;9.60;99.90;;;9.11;99.72;102299.09;4102332;29;20136;-73
2021/03/03 02:40:20;;;;;;;31.20;18.00;;;9.60;99.90;;;9.08;99.25;102301.97;4103414;28;20211;-73
2021/03/03 02:42:21;;;;;;;38.50;20.75;;;9.50;99.90;;;9.19;99.74;102304.69;4102388;29;20023;-73
2021/03/03 02:44:25;;;;;;;33.55;20.50;;;9.60;99.90;;;9.07;99.39;102312.59;4102057;29;20032;-73
2021/03/03 02:46:27;;;;;;;29.73;18.88;;;9.50;99.90;;;9.08;99.52;102311.66;4102325;29;20038;-73
2021/03/03 02:48:28;;;;;;;28.98;19.17;;;9.60;99.90;;;9.07;99.47;102312.59;4103291;29;20042;-73
2021/03/03 02:50:31;;;;;;;34.30;18.80;;;9.50;99.90;;;9.04;99.49;102318.94;4105063;28;20122;-73
2021/03/03 02:53:02;;;;;;;35.22;20.30;;;9.50;99.90;;;9.04;99.79;102318.09;4106451;29;20043;-73
2021/03/03 02:55:03;;;;;;;30.00;18.48;;;9.50;99.90;;;9.01;100.00;102310.41;4097915;28;20042;-73
2021/03/03 02:57:04;;;;;;;28.17;17.35;;;9.50;99.90;;;9.03;100.00;102313.75;4106400;29;20027;-73
2021/03/03 02:59:14;;;;;;;29.90;18.30;;;9.50;99.90;;;9.03;100.00;102319.03;4106067;29;20082;-73
2021/03/03 03:01:17;;;;;;;28.23;18.75;;;9.50;99.90;;;9.12;99.98;102324.50;4105117;29;20063;-73
2021/03/03 03:03:30;;;;;;;38.78;18.85;;;9.50;99.90;;;9.12;99.92;102328.91;4105419;29;20027;-72
2021/03/03 03:05:33;;;;;;;36.45;19.10;;;9.60;99.90;;;9.19;99.65;102335.44;4106294;29;20042;-72
2021/03/03 03:07:41;;;;;;;31.35;17.67;;;9.60;99.90;;;9.17;98.59;102340.78;4105087;29;20154;-73
2021/03/03 03:09:45;;;;;;;34.75;18.23;;;9.60;99.90;;;9.12;99.03;102329.75;4106054;29;20097;-73
2021/03/03 03:11:51;;;;;;;34.15;18.88;;;9.60;99.90;;;9.01;99.38;102310.41;4104959;29;20038;-73
2021/03/03 03:13:59;;;;;;;35.72;20.60;;;9.60;99.90;;;9.11;100.00;102325.44;4104766;29;20039;-73
2021/03/03 03:16:02;;;;;;;32.53;18.00;;;9.60;99.90;;;8.99;100.00;102314.94;4105009;29;20127;-73
2021/03/03 03:18:15;;;;;;;35.75;20.35;;;9.50;99.90;;;9.12;100.00;102328.91;4104885;29;20499;-73
2021/03/03 03:20:17;;;;;;;31.03;17.73;;;9.50;99.90;;;8.93;100.00;102303.03;4104986;29;20168;-73
2021/03/03 03:22:21;;;;;;;30.35;18.30;;;9.50;99.90;;;9.11;100.00;102330.69;4106023;28;20148;-72
2021/03/03 03:24:24;;;;;;;24.20;17.95;;;9.60;99.90;;;8.97;100.00;102329.97;4104627;29;20038;-72
2021/03/03 03:26:25;;;;;;;35.50;19.10;;;9.50;99.90;;;9.13;100.00;102325.34;4104783;29;20035;-73
2021/03/03 03:28:27;;;;;;;40.15;19.95;;;9.60;99.90;;;9.22;100.00;102345.75;4105723;29;20415;-72
2021/03/03 03:30:29;;;;;;;27.00;18.92;;;9.60;99.90;;;9.20;99.90;102337.13;4104780;29;20086;-72
2021/03/03 03:32:31;;;;;;;27.67;18.63;;;9.60;99.90;;;9.22;99.70;102345.75;4104619;29;20040;-73
2021/03/03 03:34:35;;;;;;;29.73;17.95;;;9.60;99.90;;;9.13;100.00;102338.50;4095814;28;20043;-73
2021/03/03 03:36:37;;;;;;;;;;;9.60;99.90;;;8.98;100.00;102332.53;4104966;29;20128;-72
2021/03/03 03:38:38;;;;;;;27.90;17.92;;;9.60;99.90;;;9.07;100.00;102357.34;4104277;29;20373;-73
2021/03/03 03:40:40;;;;;;;34.67;21.85;;;9.60;99.90;;;9.14;100.00;102356.00;4105950;28;20027;-73
2021/03/03 03:42:44;;;;;;;33.92;20.30;;;9.60;99.90;;;9.16;100.00;102335.66;4104227;29;20031;-72
2021/03/03 03:44:46;;;;;;;32.42;19.40;;;9.70;99.90;;;9.13;100.00;102351.66;4105610;29;20492;-72
2021/03/03 03:46:48;;;;;;;33.10;18.73;;;9.70;99.90;;;9.11;100.00;102335.16;4104504;29;20110;-73
2021/03/03 03:48:49;;;;;;;30.33;18.65;;;9.70;99.90;;;9.38;100.00;102351.59;4104361;29;20403;-73
2021/03/03 03:50:51;;;;;;;29.23;18.70;;;9.70;99.90;;;9.37;100.00;102345.53;4104486;29;20032;-73
2021/03/03 03:52:57;;;;;;;34.50;20.20;;;9.80;99.90;;;9.28;100.00;102329.53;4105492;29;20038;-73
2021/03/03 03:54:57;;;;;;;31.90;21.17;;;9.80;99.90;;;9.32;100.00;102341.50;4105447;29;20110;-73
2021/03/03 03:56:58;;;;;;;42.72;20.08;;;9.80;99.90;;;9.31;100.00;102324.88;4105786;29;20027;-73
2021/03/03 03:58:59;;;;;;;30.70;19.75;;;9.80;99.90;;;9.29;99.62;102300.44;4104122;29;20454;-73
2021/03/03 04:01:00;;;;;;;29.42;19.30;;;9.80;99.90;;;9.32;100.00;102323.91;4120049;28;20043;-73
2021/03/03 04:03:01;;;;;;;31.08;19.50;;;9.80;99.90;;;9.31;100.00;102330.16;4087831;29;20024;-73
2021/03/03 04:05:03;;;;;;;39.67;18.55;;;9.80;99.90;;;9.34;100.00;102322.03;4105355;29;20038;-73
2021/03/03 04:07:05;;;;;;;32.75;18.30;;;9.80;99.90;;;9.20;99.99;102327.41;4104326;29;20027;-73
2021/03/03 04:09:06;;;;;;;27.42;18.38;;;9.70;99.90;;;9.13;100.00;102335.88;4105309;29;20039;-73
2021/03/03 04:11:06;;;;;;;33.60;18.92;;;9.70;99.90;;;9.19;100.00;102338.91;4119986;28;20031;-73
2021/03/03 04:13:07;;;;;;;30.83;18.65;;;9.70;99.90;;;8.84;100.00;102301.88;4105087;28;20058;-73
2021/03/03 04:15:10;;;;;;;33.67;22.23;;;9.60;99.90;;;8.65;100.00;102262.03;4105233;29;20023;-73
2021/03/03 04:17:10;;;;;;;31.25;20.05;;;9.60;99.90;;;9.05;100.00;102331.13;4105149;29;20098;-73
2021/03/03 04:19:11;;;;;;;36.58;21.13;;;9.70;99.90;;;9.20;100.00;102343.22;4105015;29;20027;-73
2021/03/03 04:21:12;;;;;;;32.17;19.40;;;9.70;99.90;;;9.33;100.00;102344.03;4105195;29;20034;-73
2021/03/03 04:23:13;;;;;;;35.13;20.90;;;9.70;99.90;;;9.30;100.00;102348.69;4105136;29;20691;-73
2021/03/03 04:25:17;;;;;;;43.50;24.35;;;9.80;99.90;;;9.10;100.00;102321.13;4105028;29;20035;-73
2021/03/03 04:27:18;;;;;;;41.53;22.85;;;9.70;99.90;;;9.27;100.00;102351.53;4103777;29;20043;-73
2021/03/03 04:29:19;;;;;;;48.28;25.08;;;9.70;99.90;;;9.14;100.00;102338.38;4104875;29;20035;-73
2021/03/03 04:31:20;;;;;;;37.08;22.80;;;9.70;99.90;;;9.32;100.00;102359.94;4103804;29;20031;-73
2021/03/03 04:33:21;;;;;;;51.40;27.00;;;9.80;99.90;;;9.31;100.00;102348.59;4104909;28;20035;-73
2021/03/03 04:35:22;;;;;;;41.03;24.60;;;9.80;99.90;;;9.28;100.00;102356.72;4125208;28;20073;-73
2021/03/03 04:37:23;;;;;;;34.40;21.58;;;9.70;99.90;;;9.30;100.00;102365.31;4136979;28;20038;-73
2021/03/03 04:39:24;;;;;;;47.63;25.23;;;9.80;99.90;;;9.20;100.00;102332.69;4119675;28;20074;-73
2021/03/03 04:41:25;;;;;;;36.92;24.33;;;9.80;99.90;;;9.33;100.00;102349.31;4119607;28;20058;-73
2021/03/03 04:43:26;;;;;;;42.33;23.17;;;9.80;99.90;;;9.36;100.00;102359.63;4136585;28;20086;-73
2021/03/03 04:45:27;;;;;;;42.33;22.70;;;9.80;99.90;;;9.37;100.00;102361.31;4137073;28;20030;-73
2021/03/03 04:47:28;;;;;;;36.97;21.45;;;9.80;99.90;;;9.57;100.00;102362.53;4131948;28;20037;-73
2021/03/03 04:49:29;;;;;;;36.67;21.38;;;9.90;99.90;;;9.47;100.00;102369.38;4136735;28;20631;-73
2021/03/03 04:51:30;;;;;;;35.45;19.33;;;9.90;99.90;;;9.42;100.00;102368.88;4132154;28;20560;-73
2021/03/03 04:53:30;;;;;;;35.22;19.80;;;9.90;99.90;;;9.58;100.00;102368.63;4136630;28;20034;-73
2021/03/03 04:55:31;;;;;;;36.10;19.40;;;10.00;99.90;;;9.55;100.00;102356.53;4119424;28;20545;-73
2021/03/03 04:57:33;;;;;;;37.25;18.63;;;10.00;99.90;;;9.51;100.00;102356.84;4136523;28;20061;-73
2021/03/03 04:59:34;;;;;;;33.35;19.23;;;10.00;99.90;;;9.35;100.00;102328.97;4127459;28;20489;-72
2021/03/03 05:01:35;;;;;;;39.20;19.88;;;10.00;99.90;;;9.58;100.00;102356.31;4136356;28;20116;-73
2021/03/03 05:03:36;;;;;;;39.83;20.25;;;10.00;99.90;;;9.59;100.00;102360.59;4119348;28;20042;-72
2021/03/03 05:05:37;;;;;;;36.97;21.20;;;10.00;99.90;;;9.67;100.00;102350.38;4136636;28;20481;-72
2021/03/03 05:07:38;;;;;;;30.17;18.80;;;10.00;99.90;;;9.55;100.00;102346.00;4136430;28;20037;-73
2021/03/03 05:09:39;;;;;;;42.90;21.10;;;10.00;99.90;;;9.44;100.00;102344.13;4136217;28;20077;-73
2021/03/03 05:11:40;;;;;;;33.05;19.98;;;10.00;99.90;;;9.37;100.00;102339.41;4136368;28;20489;-73
2021/03/03 05:13:41;;;;;;;33.58;19.33;;;9.90;99.90;;;9.36;100.00;102349.09;4135343;28;20197;-73
2021/03/03 05:15:43;;;;;;;43.15;21.58;;;9.90;99.90;;;9.41;100.00;102359.28;4136346;28;20038;-73
2021/03/03 05:17:43;;;;;;;41.05;22.30;;;9.90;99.90;;;9.45;100.00;102353.72;4136376;28;20076;-73
2021/03/03 05:19:44;;;;;;;46.10;23.17;;;9.90;99.90;;;9.54;100.00;102362.75;4136387;28;20069;-73
2021/03/03 05:21:45;;;;;;;38.85;20.85;;;10.00;99.90;;;9.47;100.00;102361.47;4136217;28;20379;-73
2021/03/03 05:23:46;;;;;;;42.67;22.70;;;9.90;99.90;;;9.50;100.00;102353.38;4136259;28;20037;-73
2021/03/03 05:25:47;;;;;;;41.17;20.23;;;9.90;99.90;;;9.53;100.00;102361.03;4136009;28;20038;-73
2021/03/03 05:27:48;;;;;;;35.20;20.73;;;10.00;99.90;;;9.53;100.00;102361.03;4136045;28;20030;-73
2021/03/03 05:29:49;;;;;;;43.25;20.95;;;10.00;99.90;;;9.60;100.00;102362.31;4136156;28;20042;-73
2021/03/03 05:31:49;;;;;;;47.10;23.27;;;10.00;99.90;;;9.55;100.00;102363.59;4135908;28;20077;-73
2021/03/03 05:33:50;;;;;;;47.97;23.20;;;10.00;99.90;;;9.47;100.00;102335.16;4135953;28;20026;-73
2021/03/03 05:35:52;;;;;;;48.78;23.13;;;10.00;99.90;;;9.51;100.00;102343.69;4135945;28;20042;-73
2021/03/03 05:37:53;;;;;;;42.30;20.42;;;10.00;99.90;;;9.51;100.00;102351.56;4135931;28;20022;-73
2021/03/03 05:39:54;;;;;;;51.03;21.60;;;10.00;99.90;;;9.53;100.00;102358.41;4136067;28;20433;-73
2021/03/03 05:42:03;;;;;;;56.15;22.38;;;10.00;99.90;;;9.53;100.00;102361.03;4135947;28;20026;-73
2021/03/03 05:44:07;;;;;;;41.72;20.42;;;10.00;99.90;;;9.48;100.00;102362.34;4135849;28;20030;-73
2021/03/03 05:46:08;;;;;;;43.95;20.80;;;10.00;99.90;;;9.53;100.00;102361.03;4136052;28;20038;-73
2021/03/03 05:48:48;;;;;;;41.90;22.27;;;10.00;99.90;;;9.54;100.00;102359.25;4135984;28;20085;-73
2021/03/03 05:50:58;;;;;;;42.00;21.27;;;10.00;99.90;;;9.54;100.00;102357.47;4135909;28;20102;-73
2021/03/03 05:53:00;;;;;;;45.55;20.70;;;10.00;99.90;;;9.51;100.00;102360.31;4135899;28;20089;-73
2021/03/03 05:55:04;;;;;;;40.42;21.15;;;10.00;99.90;;;9.51;100.00;102357.69;4135813;28;20496;-73
2021/03/03 05:57:06;;;;;;;37.90;20.15;;;9.90;99.90;;;9.45;100.00;102342.31;4118460;28;20084;-73
2021/03/03 05:59:11;;;;;;;35.42;20.50;;;10.00;99.90;;;9.53;100.00;102365.50;4135571;28;20027;-73
2021/03/03 06:01:12;;;;;;;40.40;20.75;;;9.90;99.90;;;9.72;100.00;102361.41;4118622;28;20038;-73
2021/03/03 06:03:14;;;;;;;37.53;20.02;;;10.00;99.90;;;9.63;100.00;102361.25;4135652;28;20394;-73
2021/03/03 06:05:15;;;;;;;40.10;22.13;;;10.10;99.90;;;9.71;100.00;102369.41;4102635;28;20036;-73
2021/03/03 06:07:16;;;;;;;36.85;19.67;;;10.10;99.90;;;9.55;100.00;102348.63;4118653;28;20585;-73
2021/03/03 06:09:19;;;;;;;38.05;19.08;;;10.00;99.90;;;9.47;100.00;102353.59;4118742;28;20034;-73
2021/03/03 06:11:20;;;;;;;40.35;19.63;;;10.00;99.90;;;9.34;100.00;102340.47;4135543;28;20022;-73
2021/03/03 06:13:21;;;;;;;38.55;20.95;;;10.00;99.90;;;9.62;100.00;102370.94;4118143;28;20118;-73
2021/03/03 06:15:23;;;;;;;29.95;18.05;;;10.00;99.90;;;9.48;100.00;102368.44;4135695;28;20030;-73
2021/03/03 06:17:25;;;;;;;40.38;21.80;;;9.90;99.90;;;9.54;100.00;102373.28;4118324;28;20034;-73
2021/03/03 06:19:26;;;;;;;30.27;17.92;;;9.90;99.90;;;9.40;100.00;102355.84;4118353;28;20031;-73
2021/03/03 06:21:30;;;;;;;41.53;19.70;;;9.90;99.90;;;9.36;100.00;102362.25;4118659;28;20181;-73
2021/03/03 06:23:31;;;;;;;;;;;9.80;99.90;;;9.36;100.00;102375.44;4136176;28;20113;-73
2021/03/03 06:25:32;;;;;;;32.50;19.88;;;9.80;99.90;;;9.29;100.00;102370.69;4137343;28;20300;-73
2021/03/03 06:27:39;;;;;;;37.10;20.13;;;9.70;99.90;;;9.23;100.00;102374.59;4138453;28;20042;-73
2021/03/03 06:29:40;;;;;;;39.03;20.35;;;9.70;99.90;;;9.30;100.00;102375.88;4138834;28;20037;-73
2021/03/03 06:31:41;;;;;;;34.08;18.85;;;9.60;99.90;;;9.12;100.00;102360.50;4138749;28;20113;-73
2021/03/03 06:33:42;;;;;;;30.58;18.63;;;9.60;99.90;;;9.19;100.00;102375.78;4138853;28;20033;-73
2021/03/03 06:35:47;;;;;;;31.92;19.13;;;9.60;99.90;;;9.15;100.00;102371.66;4138540;28;20042;-73
2021/03/03 06:37:56;;;;;;;29.60;17.88;;;9.50;99.90;;;9.12;100.00;102376.31;4138472;28;20038;-73
2021/03/03 06:40:09;;;;;;;30.17;18.55;;;9.50;99.90;;;8.97;100.00;102356.31;4121384;28;20034;-73
2021/03/03 06:42:25;;;;;;;29.20;18.23;;;9.50;99.90;;;9.06;100.00;102371.47;4138726;28;20084;-73
2021/03/03 06:44:46;;;;;;;31.10;19.00;;;9.40;99.90;;;9.04;100.00;102374.22;4138324;28;20031;-73
2021/03/03 06:47:07;;;;;;;30.15;18.33;;;9.40;99.90;;;9.00;100.00;102388.53;4138538;28;20066;-73
2021/03/03 06:49:24;;;;;;;30.75;17.83;;;9.40;99.90;;;8.99;100.00;102380.75;4138518;28;20053;-73
2021/03/03 06:51:33;;;;;;;33.97;17.50;;;9.40;99.90;;;9.00;100.00;102387.69;4138523;28;20018;-73
2021/03/03 06:53:34;;;;;;;28.30;18.85;;;9.40;99.90;;;8.88;100.00;102376.22;4138573;28;20110;-72
2021/03/03 06:55:48;;;;;;;33.88;20.05;;;9.30;99.90;;;9.01;100.00;102392.84;4121237;28;20023;-73
2021/03/03 06:57:49;;;;;;;34.03;20.27;;;9.30;99.90;;;8.92;100.00;102390.00;4138122;28;20045;-73
2021/03/03 06:59:51;;;;;;;26.88;17.02;;;9.30;99.90;;;8.90;100.00;102387.47;4120708;28;20193;-72
2021/03/03 07:01:57;;;;;;;28.55;16.80;;;9.30;99.90;;;8.89;100.00;102402.44;4121213;28;20442;-73
2021/03/03 07:03:58;;;;;;;39.70;18.60;;;9.30;99.90;;;8.74;100.00;102389.47;4138390;28;20385;-73
2021/03/03 07:06:03;;;;;;;35.40;18.77;;;9.10;99.90;;;8.45;100.00;102345.88;4138331;28;20030;-73
2021/03/03 07:08:04;;;;;;;27.38;17.65;;;9.10;99.90;;;8.76;100.00;102401.56;4138278;28;20026;-73
2021/03/03 07:10:07;;;;;;;29.80;17.42;;;9.10;99.90;;;8.66;100.00;102395.22;4138286;28;20041;-72
2021/03/03 07:12:12;;;;;;;28.10;18.60;;;9.10;99.90;;;8.74;100.00;102416.63;4120955;28;20078;-72
2021/03/03 07:14:20;;;;;;;30.30;18.25;;;9.00;99.90;;;8.72;100.00;102421.13;4137990;28;20390;-72
2021/03/03 07:16:21;;;;;;;30.13;17.60;;;9.00;99.90;;;8.75;100.00;102420.09;4125787;28;20038;-73
2021/03/03 07:18:39;;;;;;;28.67;17.55;;;9.00;99.90;;;8.71;100.00;102418.63;4138029;28;20093;-73
2021/03/03 07:20:46;;;;;;;28.05;16.65;;;9.00;99.90;;;8.72;100.00;102423.75;4138084;28;20133;-73
2021/03/03 07:22:50;;;;;;;26.92;17.27;;;9.00;99.90;;;8.62;100.00;102409.56;4137990;28;20144;-73
2021/03/03 07:24:53;;;;;;;;;;;8.90;99.90;;;8.53;100.00;102411.94;4138027;28;20026;-73
2021/03/03 07:26:54;;;;;;;24.83;16.15;;;8.90;99.90;;;8.53;100.00;102411.94;4134091;28;19945;-73
2021/03/03 07:28:56;;;;;;;24.58;15.77;;;8.90;99.90;;;8.54;100.00;102411.84;4134586;28;20561;-73
2021/03/03 07:30:58;;;;;;;29.00;17.55;;;8.90;99.90;;;8.49;100.00;102402.56;4120182;28;20053;-73
2021/03/03 07:33:00;;;;;;;27.25;17.52;;;8.80;99.90;;;8.54;100.00;102419.72;4118428;28;20510;-73
2021/03/03 07:35:03;;;;;;;31.67;17.95;;;8.80;99.90;;;8.61;100.00;102422.78;4120053;28;20051;-74
2021/03/03 07:37:04;;;;;;;32.83;17.92;;;8.90;99.90;;;8.53;100.00;102418.06;4126767;28;20038;-74
2021/03/03 07:39:09;;;;;;;28.85;17.75;;;8.90;99.90;;;8.66;100.00;102424.16;4120220;28;20415;-74
2021/03/03 07:41:14;;;;;;;28.00;15.77;;;8.90;99.90;;;8.59;100.00;102429.94;4120260;28;20062;-74
2021/03/03 07:43:22;;;;;;;30.35;16.95;;;8.90;99.90;;;8.66;100.00;102428.63;4121466;28;20027;-73
2021/03/03 07:45:35;;;;;;;28.20;16.48;;;8.90;99.90;;;8.70;100.00;102430.06;4109245;28;20031;-73
2021/03/03 07:47:42;;;;;;;25.40;18.15;;;9.00;99.90;;;8.58;100.00;102421.22;4118611;28;20445;-73
2021/03/03 07:49:47;;;;;;;31.33;17.90;;;9.00;99.90;;;8.67;100.00;102425.88;4114336;28;20049;-73
2021/03/03 07:51:48;;;;;;;24.98;17.00;;;9.00;99.90;;;8.68;100.00;102427.56;4120889;28;20561;-73
2021/03/03 07:53:49;;;;;;;30.10;17.08;;;9.00;99.90;;;8.68;100.00;102424.09;4119663;28;20026;-73
2021/03/03 07:55:58;;;;;;;33.10;18.63;;;9.10;99.90;;;8.93;100.00;102423.28;4119881;28;20587;-73
2021/03/03 07:58:00;;;;;;;29.02;16.98;;;9.10;99.90;;;8.85;100.00;102427.25;4120251;28;20030;-73
2021/03/03 08:00:13;;;;;;;30.83;18.13;;;9.20;99.90;;;8.79;100.00;102413.66;4119220;28;20102;-73
2021/03/03 08:02:13;;;;;;;27.50;16.60;;;9.20;99.90;;;8.80;100.00;102413.59;4119029;28;20043;-73
2021/03/03 08:04:44;;;;;;;32.00;17.58;;;9.30;99.90;;;9.06;100.00;102417.06;4121029;28;20093;-74
2021/03/03 08:06:45;;;;;;;33.28;18.52;;;9.30;99.90;;;9.15;100.00;102428.75;4107078;28;20042;-74
2021/03/03 08:09:05;;;;;;;34.33;18.83;;;9.50;99.90;;;9.32;100.00;102426.63;4119464;28;20101;-73
2021/03/03 08:11:25;;;;;;;27.20;16.70;;;9.60;99.90;;;9.29;100.00;102431.25;4119016;28;20062;-74
2021/03/03 08:13:33;;;;;;;25.58;16.75;;;9.70;99.90;;;9.31;100.00;102429.38;4120664;28;20054;-74
2021/03/03 08:15:48;;;;;;;29.40;16.55;;;9.80;99.90;;;9.44;100.00;102428.41;4120270;28;20368;-74
2021/03/03 08:17:49;;;;;;;34.03;19.63;;;9.90;99.90;;;9.60;100.00;102427.31;4118771;28;20038;-72
2021/03/03 08:19:55;;;;;;;30.05;17.95;;;10.10;99.90;;;9.61;100.00;102413.22;4119282;28;20307;-72
2021/03/03 08:21:56;;;;;;;29.30;17.60;;;10.20;99.90;;;9.83;100.00;102423.88;4119297;28;20026;-72
2021/03/03 08:24:03;;;;;;;31.73;16.80;;;10.40;99.90;;;10.00;100.00;102434.88;4120468;28;20363;-72
2021/03/03 08:26:12;;;;;;;23.67;16.30;;;10.50;99.90;;;9.75;100.00;102384.06;4120760;28;20042;-73
2021/03/03 08:28:35;;;;;;;26.05;16.70;;;10.60;99.90;;;10.14;100.00;102435.72;4118847;28;20031;-72
2021/03/03 08:30:36;;;;;;;24.98;15.95;;;10.80;99.90;;;10.05;100.00;102415.28;4118859;28;20031;-72